Wathena, Kansas
Current Conditions -  °F | °C
As of 9:53 AM on Sunday 21 Dec 2014 (Local Time) from KSTJ Reporting Station
Overcast Overcast  
Wind Chill: 33°   Ceiling: 1900
Heat Index: 40°   Visibility: 10mi
Dew Point: 36°   Wind: 13mph
Humidity: 86%   Direction: 170°S
Pressure: 29.99"   Gusts: NA
Location:  39.76°N, 94.95°W
Report Text: KSTJ 211553Z 17011KT 10SM OVC019 04/02 A2999 RMK AO2 SLP161 T00440022
Loading
Personal Weather Stations






























Interactive Weather Map New forecast layout! Learn more

10-Day Weather Forecast

Advertisements
Track Severe Weather on mobile